createdAt,value
2022-10-04T00:00:22.790Z,97064.16
2022-10-04T00:02:49.034Z,97072.66
2022-10-04T00:05:20.110Z,97071.63
2022-10-04T00:07:51.176Z,97071.63
2022-10-04T00:10:25.096Z,97065.78
2022-10-04T00:12:58.187Z,97062.34
2022-10-04T00:15:30.416Z,97046.78
2022-10-04T00:18:27.442Z,97047.19
2022-10-04T00:20:53.373Z,97044.56
2022-10-04T00:23:22.305Z,97043.56
2022-10-04T00:25:48.100Z,97035.03
2022-10-04T00:28:37.058Z,97026.34
2022-10-04T00:31:21.609Z,97026.56
2022-10-04T00:34:16.399Z,97033.84
2022-10-04T00:36:51.442Z,97035.06
2022-10-04T00:39:25.594Z,97031.00
2022-10-04T00:42:39.267Z,97030.41
2022-10-04T00:45:59.155Z,97037.06
2022-10-04T00:48:41.684Z,97030.41
2022-10-04T00:51:11.737Z,97026.97
2022-10-04T00:54:05.207Z,97033.22
2022-10-04T00:56:52.451Z,97025.53
2022-10-04T00:59:39.197Z,97024.31
2022-10-04T01:02:17.527Z,97025.53
2022-10-04T01:04:59.660Z,97031.81
2022-10-04T01:07:38.925Z,97036.47
2022-10-04T01:10:17.761Z,97032.22
2022-10-04T01:13:03.842Z,97021.72
2022-10-04T01:15:57.315Z,97015.44
2022-10-04T01:18:23.024Z,97007.75
2022-10-04T01:20:53.740Z,96990.34
2022-10-04T01:23:32.502Z,96991.78
2022-10-04T01:25:58.606Z,97000.69
2022-10-04T01:28:26.147Z,96995.59
2022-10-04T01:30:52.806Z,97003.09
2022-10-04T01:33:18.778Z,96999.81
2022-10-04T01:35:44.594Z,96989.53
2022-10-04T01:38:12.147Z,96983.09
2022-10-04T01:40:47.779Z,96977.84
2022-10-04T01:43:20.693Z,96977.03
2022-10-04T01:45:52.744Z,96981.06
2022-10-04T01:48:23.684Z,96971.38
2022-10-04T01:51:04.944Z,96968.13
2022-10-04T01:53:34.088Z,96963.69
2022-10-04T01:56:22.902Z,96968.31
2022-10-04T01:58:53.644Z,96967.31
2022-10-04T02:01:29.913Z,96958.84
2022-10-04T02:04:22.094Z,96958.44
2022-10-04T02:06:53.432Z,96955.63
2022-10-04T02:09:24.388Z,96960.06
2022-10-04T02:11:53.415Z,96957.41
2022-10-04T02:14:23.856Z,96953.78
2022-10-04T02:16:53.104Z,96950.34
2022-10-04T02:19:26.793Z,96942.88
2022-10-04T02:21:54.730Z,96937.41
2022-10-04T02:24:20.918Z,96936.16
2022-10-04T02:26:51.305Z,96928.28
2022-10-04T02:29:19.779Z,96933.72
2022-10-04T02:32:07.935Z,96934.09
2022-10-04T02:34:34.394Z,96926.81
2022-10-04T02:37:05.105Z,96932.44
2022-10-04T02:39:43.364Z,96929.44
2022-10-04T02:42:19.704Z,96916.66
2022-10-04T02:44:58.414Z,96921.06
2022-10-04T02:47:41.645Z,96930.63
2022-10-04T02:50:20.261Z,96935.84
2022-10-04T02:52:52.772Z,96940.09
2022-10-04T02:55:28.921Z,96929.75
2022-10-04T02:57:57.665Z,96928.13
2022-10-04T03:00:29.501Z,96925.50
2022-10-04T03:03:15.294Z,96924.72
2022-10-04T03:05:44.225Z,96921.66
2022-10-04T03:08:11.271Z,96919.03
2022-10-04T03:10:37.580Z,96910.94
2022-10-04T03:13:04.130Z,96907.34
2022-10-04T03:15:31.143Z,96914.00
2022-10-04T03:17:58.960Z,96912.97
2022-10-04T03:20:25.050Z,96904.88
2022-10-04T03:22:54.916Z,96892.75
2022-10-04T03:25:28.121Z,96891.97
2022-10-04T03:27:58.980Z,96892.97
2022-10-04T03:30:24.921Z,96883.81
2022-10-04T03:32:51.080Z,96891.41
2022-10-04T03:35:35.710Z,96898.84
2022-10-04T03:38:08.200Z,96897.00
2022-10-04T03:40:37.063Z,96898.22
2022-10-04T03:43:04.827Z,96900.41
2022-10-04T03:45:34.418Z,96898.41
2022-10-04T03:48:07.311Z,96902.81
2022-10-04T03:50:38.511Z,96895.72
2022-10-04T03:53:15.380Z,96893.56
2022-10-04T03:55:43.642Z,96888.53
2022-10-04T03:58:16.310Z,96889.78
2022-10-04T04:00:52.583Z,96879.28
2022-10-04T04:03:20.928Z,96882.25
2022-10-04T04:05:53.741Z,96876.19
2022-10-04T04:08:53.815Z,96876.78
2022-10-04T04:11:26.982Z,96876.56
2022-10-04T04:14:10.213Z,96882.84
2022-10-04T04:16:37.472Z,96894.00
2022-10-04T04:19:10.644Z,96889.94
2022-10-04T04:21:36.885Z,96900.03
2022-10-04T04:24:07.629Z,96899.22
2022-10-04T04:26:42.304Z,96891.94
2022-10-04T04:29:23.869Z,96891.72
2022-10-04T04:31:58.480Z,96886.66
2022-10-04T04:34:30.202Z,96886.84
2022-10-04T04:37:00.723Z,96889.16
2022-10-04T04:39:36.541Z,96885.13
2022-10-04T04:42:16.479Z,96876.19
2022-10-04T04:44:54.384Z,96872.22
2022-10-04T04:47:34.167Z,96873.25
2022-10-04T04:50:18.710Z,96866.13
2022-10-04T04:52:49.464Z,96864.31
2022-10-04T04:55:19.299Z,96862.13
2022-10-04T04:57:47.296Z,96854.44
2022-10-04T05:00:25.392Z,96855.31
2022-10-04T05:03:00.285Z,96863.75
2022-10-04T05:05:31.120Z,96863.28
2022-10-04T05:08:15.424Z,96867.44
2022-10-04T05:11:07.603Z,96858.13
2022-10-04T05:13:46.005Z,96852.69
2022-10-04T05:16:18.990Z,96861.75
2022-10-04T05:18:45.642Z,96856.28
2022-10-04T05:21:19.878Z,96856.28
2022-10-04T05:23:46.094Z,96853.28
2022-10-04T05:26:13.715Z,96854.94
2022-10-04T05:28:40.685Z,96859.97
2022-10-04T05:31:33.467Z,96847.22
2022-10-04T05:33:59.550Z,96845.81
2022-10-04T05:36:37.462Z,96855.53
2022-10-04T05:39:21.603Z,96851.25
2022-10-04T05:42:01.806Z,96836.97
2022-10-04T05:44:44.163Z,96834.09
2022-10-04T05:47:13.523Z,96827.25
2022-10-04T05:49:45.663Z,96824.22
2022-10-04T05:52:27.188Z,96829.06
2022-10-04T05:55:36.867Z,96828.28
2022-10-04T05:58:25.946Z,96822.59
2022-10-04T06:01:22.934Z,96810.69
2022-10-04T06:03:56.876Z,96814.50
2022-10-04T06:06:53.765Z,96814.31
2022-10-04T06:09:39.808Z,96809.44
2022-10-04T06:12:25.642Z,96821.53
2022-10-04T06:15:07.360Z,96830.59
2022-10-04T06:17:54.309Z,96835.84
2022-10-04T06:20:38.129Z,96832.22
2022-10-04T06:23:11.243Z,96845.09
2022-10-04T06:26:00.528Z,96846.50
2022-10-04T06:28:26.281Z,96849.53
2022-10-04T06:31:17.666Z,96859.00
2022-10-04T06:33:56.902Z,96855.53
2022-10-04T06:36:51.327Z,96849.25
2022-10-04T06:39:26.226Z,96844.38
2022-10-04T06:42:09.724Z,96843.84
2022-10-04T06:44:47.260Z,96846.00
2022-10-04T06:47:43.900Z,96852.31
2022-10-04T06:50:36.026Z,96846.59
2022-10-04T06:53:21.418Z,96844.31
2022-10-04T06:56:16.345Z,96833.66
2022-10-04T06:59:02.371Z,96830.41
2022-10-04T07:01:34.259Z,96835.97
2022-10-04T07:05:07.190Z,96843.25
2022-10-04T07:07:38.007Z,96847.66
2022-10-04T07:10:30.280Z,96856.59
2022-10-04T07:13:15.614Z,96854.53
2022-10-04T07:15:44.139Z,96850.06
2022-10-04T07:18:17.712Z,96840.75
2022-10-04T07:20:44.863Z,96839.78
2022-10-04T07:23:28.230Z,96844.69
2022-10-04T07:25:59.865Z,96856.38
2022-10-04T07:28:50.665Z,96850.81
2022-10-04T07:31:16.472Z,96854.03
2022-10-04T07:33:49.652Z,96850.47
2022-10-04T07:36:22.163Z,96850.31
2022-10-04T07:38:52.799Z,96847.53
2022-10-04T07:41:52.902Z,96859.63
2022-10-04T07:44:35.321Z,96856.78
2022-10-04T07:47:19.922Z,96860.44
2022-10-04T07:49:47.924Z,96863.19
2022-10-04T07:52:25.189Z,96867.88
2022-10-04T07:55:01.344Z,96869.97
2022-10-04T07:57:27.206Z,96861.25
2022-10-04T08:00:11.700Z,96859.13
2022-10-04T08:02:50.962Z,96863.34
2022-10-04T08:05:21.927Z,96851.16
2022-10-04T08:07:56.694Z,96859.53
2022-10-04T08:10:34.746Z,96855.25
2022-10-04T08:13:35.787Z,96858.91
2022-10-04T08:16:11.868Z,96849.59
2022-10-04T08:19:07.861Z,96859.25
2022-10-04T08:22:01.568Z,96847.91
2022-10-04T08:24:35.977Z,96857.88
2022-10-04T08:27:36.277Z,96848.19
2022-10-04T08:30:20.175Z,96859.25
2022-10-04T08:33:36.477Z,96854.56
2022-10-04T08:36:18.211Z,96858.09
2022-10-04T08:38:51.651Z,96856.53
2022-10-04T08:41:35.445Z,96854.69
2022-10-04T08:44:22.848Z,96857.06
2022-10-04T08:47:25.505Z,96854.34
2022-10-04T08:50:03.474Z,96860.63
2022-10-04T08:53:02.177Z,96867.28
2022-10-04T08:55:47.035Z,96866.88
2022-10-04T08:59:02.203Z,96870.47
2022-10-04T09:02:24.786Z,96871.53
2022-10-04T09:05:18.413Z,96873.38
2022-10-04T09:07:59.584Z,96869.19
2022-10-04T09:10:38.118Z,96863.34
2022-10-04T09:13:37.199Z,96867.97
2022-10-04T09:16:19.549Z,96872.94
2022-10-04T09:19:26.820Z,96878.38
2022-10-04T09:21:55.283Z,96867.63
2022-10-04T09:25:11.037Z,96866.41
2022-10-04T09:27:55.065Z,96859.41
2022-10-04T09:30:37.382Z,96856.94
2022-10-04T09:33:15.038Z,96853.47
2022-10-04T09:35:57.667Z,96850.13
2022-10-04T09:38:32.444Z,96852.38
2022-10-04T09:41:21.092Z,96855.78
2022-10-04T09:43:53.619Z,96857.34
2022-10-04T09:46:54.470Z,96855.00
2022-10-04T09:49:26.706Z,96850.81
2022-10-04T09:52:22.800Z,96866.13
2022-10-04T09:55:16.889Z,96862.25
2022-10-04T09:57:47.723Z,96857.78
2022-10-04T10:00:21.429Z,96858.88
2022-10-04T10:02:56.275Z,96852.84
2022-10-04T10:05:59.263Z,96851.38
2022-10-04T10:08:40.839Z,96849.66
2022-10-04T10:11:38.977Z,96846.28
2022-10-04T10:14:32.812Z,96858.41
2022-10-04T10:17:26.834Z,96859.06
2022-10-04T10:20:08.861Z,96848.16
2022-10-04T10:22:46.682Z,96860.88
2022-10-04T10:25:46.577Z,96842.25
2022-10-04T10:28:24.475Z,96852.47
2022-10-04T10:31:10.990Z,96836.81
2022-10-04T10:34:04.179Z,96837.88
2022-10-04T10:36:51.680Z,96848.16
2022-10-04T10:39:36.214Z,96832.56
2022-10-04T10:42:27.032Z,96828.66
2022-10-04T10:45:16.956Z,96830.78
2022-10-04T10:48:08.549Z,96835.09
2022-10-04T10:50:57.674Z,96849.56
2022-10-04T10:53:54.509Z,96850.66
2022-10-04T10:56:49.670Z,96838.34
2022-10-04T10:59:36.342Z,96840.78
2022-10-04T11:02:48.668Z,96826.66
2022-10-04T11:05:33.455Z,96826.84
2022-10-04T11:08:29.140Z,96820.22
2022-10-04T11:11:13.143Z,96822.44
2022-10-04T11:13:59.649Z,96811.53
2022-10-04T11:16:56.443Z,96818.00
2022-10-04T11:19:54.708Z,96817.84
2022-10-04T11:22:51.036Z,96830.78
2022-10-04T11:25:58.994Z,96817.53
2022-10-04T11:28:55.977Z,96813.00
2022-10-04T11:31:45.072Z,96825.13
2022-10-04T11:34:29.484Z,96835.31
2022-10-04T11:37:01.997Z,96803.84
2022-10-04T11:39:55.578Z,96806.66
2022-10-04T11:43:12.378Z,96800.31
2022-10-04T11:45:38.052Z,96814.00
2022-10-04T11:48:10.516Z,96800.69
2022-10-04T11:51:02.443Z,96805.97
2022-10-04T11:53:57.525Z,96814.72
2022-10-04T11:56:43.286Z,96821.13
2022-10-04T11:59:28.155Z,96807.66
2022-10-04T12:02:15.702Z,96805.19
2022-10-04T12:05:16.815Z,96802.16
2022-10-04T12:08:05.320Z,96805.28
2022-10-04T12:10:37.871Z,96805.25
2022-10-04T12:13:06.325Z,96800.13
2022-10-04T12:15:44.280Z,96794.59
2022-10-04T12:18:11.548Z,96792.94
2022-10-04T12:21:15.385Z,96793.16
2022-10-04T12:23:44.304Z,96776.06
2022-10-04T12:26:22.089Z,96780.94
2022-10-04T12:29:21.233Z,96780.09
2022-10-04T12:32:31.926Z,96776.06
2022-10-04T12:35:21.640Z,96780.19
2022-10-04T12:38:21.530Z,96768.34
2022-10-04T12:41:28.073Z,96771.38
2022-10-04T12:44:02.190Z,96773.31
2022-10-04T12:47:05.177Z,96782.41
2022-10-04T12:49:59.714Z,96779.00
2022-10-04T12:52:32.165Z,96767.75
2022-10-04T12:55:37.277Z,96753.69
2022-10-04T12:58:09.869Z,96755.03
2022-10-04T13:00:42.361Z,96752.75
2022-10-04T13:03:43.154Z,96745.00
2022-10-04T13:06:32.399Z,96752.47
2022-10-04T13:09:04.279Z,96753.28
2022-10-04T13:11:56.601Z,96744.97
2022-10-04T13:14:33.660Z,96742.97
2022-10-04T13:17:28.227Z,96738.06
2022-10-04T13:20:25.327Z,96737.44
2022-10-04T13:23:20.842Z,96734.78
2022-10-04T13:26:05.136Z,96726.03
2022-10-04T13:28:41.593Z,96722.59
2022-10-04T13:31:32.424Z,96712.50
2022-10-04T13:34:40.493Z,96715.78
2022-10-04T13:37:27.823Z,96708.19
2022-10-04T13:40:13.832Z,96704.59
2022-10-04T13:42:58.377Z,96709.50
2022-10-04T13:45:49.324Z,96712.72
2022-10-04T13:48:27.159Z,96712.72
2022-10-04T13:51:34.558Z,96713.19
2022-10-04T13:54:53.346Z,96711.94
2022-10-04T13:57:29.900Z,96709.53
2022-10-04T14:00:04.585Z,96709.47
2022-10-04T14:03:07.287Z,96705.16
2022-10-04T14:05:37.130Z,96706.16
2022-10-04T14:08:37.862Z,96704.34
2022-10-04T14:11:24.455Z,96704.38
2022-10-04T14:14:19.333Z,96713.47
2022-10-04T14:17:06.727Z,96709.63
2022-10-04T14:20:10.083Z,96697.19
2022-10-04T14:22:45.570Z,96689.84
2022-10-04T14:25:20.291Z,96688.91
2022-10-04T14:28:00.372Z,96679.13
2022-10-04T14:31:03.382Z,96678.59
2022-10-04T14:33:38.384Z,96679.97
2022-10-04T14:36:19.163Z,96677.56
2022-10-04T14:38:53.954Z,96671.47
2022-10-04T14:41:44.693Z,96672.22
2022-10-04T14:44:27.527Z,96677.06
2022-10-04T14:47:17.877Z,96672.22
2022-10-04T14:50:04.717Z,96673.81
2022-10-04T14:52:44.075Z,96675.69
2022-10-04T14:55:34.162Z,96679.38
2022-10-04T14:58:17.212Z,96678.28
2022-10-04T15:00:59.326Z,96669.25
2022-10-04T15:03:29.159Z,96664.72
2022-10-04T15:06:11.028Z,96673.47
2022-10-04T15:08:55.030Z,96664.19
2022-10-04T15:11:42.349Z,96656.44
2022-10-04T15:14:26.680Z,96659.38
2022-10-04T15:16:58.130Z,96661.94
2022-10-04T15:19:32.130Z,96658.44
2022-10-04T15:22:23.298Z,96651.28
2022-10-04T15:24:51.414Z,96645.56
2022-10-04T15:27:29.091Z,96646.31
2022-10-04T15:30:16.287Z,96644.16
2022-10-04T15:33:06.663Z,96647.13
2022-10-04T15:35:53.294Z,96648.94
2022-10-04T15:38:34.204Z,96641.47
2022-10-04T15:41:04.209Z,96648.88
2022-10-04T15:43:43.912Z,96648.69
2022-10-04T15:46:28.689Z,96639.34
2022-10-04T15:49:30.279Z,96643.31
2022-10-04T15:52:40.783Z,96639.75
2022-10-04T15:55:37.332Z,96643.28
2022-10-04T15:58:19.188Z,96645.31
2022-10-04T16:00:59.222Z,96636.31
2022-10-04T16:03:33.967Z,96641.88
2022-10-04T16:06:27.203Z,96645.00
2022-10-04T16:09:14.890Z,96641.59
2022-10-04T16:11:57.460Z,96649.75
2022-10-04T16:14:37.252Z,96647.88
2022-10-04T16:17:35.471Z,96649.47
2022-10-04T16:20:33.550Z,96643.25
2022-10-04T16:23:23.752Z,96648.69
2022-10-04T16:25:51.887Z,96648.13
2022-10-04T16:28:26.260Z,96661.59
2022-10-04T16:31:20.165Z,96670.16
2022-10-04T16:34:11.196Z,96659.66
2022-10-04T16:36:43.600Z,96665.97
2022-10-04T16:39:29.442Z,96664.63
2022-10-04T16:42:01.291Z,96671.03
2022-10-04T16:44:45.933Z,96668.09
2022-10-04T16:47:40.181Z,96656.66
2022-10-04T16:50:10.988Z,96659.47
2022-10-04T16:53:16.764Z,96653.69
2022-10-04T16:55:55.525Z,96658.56
2022-10-04T16:58:27.477Z,96664.75
2022-10-04T17:01:27.950Z,96656.72
2022-10-04T17:04:02.960Z,96668.97
2022-10-04T17:06:44.131Z,96666.50
2022-10-04T17:09:25.434Z,96657.91
2022-10-04T17:12:19.217Z,96666.00
2022-10-04T17:14:53.937Z,96665.13
2022-10-04T17:17:41.741Z,96662.66
2022-10-04T17:20:25.792Z,96665.63
2022-10-04T17:23:28.323Z,96668.19
2022-10-04T17:26:06.606Z,96669.47
2022-10-04T17:29:03.250Z,96666.75
2022-10-04T17:31:29.195Z,96668.16
2022-10-04T17:34:13.744Z,96666.03
2022-10-04T17:36:54.119Z,96663.59
2022-10-04T17:39:33.333Z,96658.06
2022-10-04T17:42:12.483Z,96660.31
2022-10-04T17:45:16.914Z,96656.13
2022-10-04T17:48:20.041Z,96657.44
2022-10-04T17:51:30.940Z,96659.84
2022-10-04T17:54:30.485Z,96653.25
2022-10-04T17:57:02.554Z,96664.41
2022-10-04T17:59:38.043Z,96662.59
2022-10-04T18:02:10.972Z,96664.03
2022-10-04T18:04:49.754Z,96665.22
2022-10-04T18:07:23.698Z,96667.47
2022-10-04T18:09:58.106Z,96667.97
2022-10-04T18:12:29.339Z,96674.22
2022-10-04T18:15:02.816Z,96667.94
2022-10-04T18:17:41.270Z,96661.22
2022-10-04T18:20:07.485Z,96661.44
2022-10-04T18:22:46.024Z,96668.75
2022-10-04T18:25:14.217Z,96664.75
2022-10-04T18:28:10.791Z,96663.31
2022-10-04T18:30:45.567Z,96664.59
2022-10-04T18:33:16.602Z,96664.59
2022-10-04T18:35:54.492Z,96659.31
2022-10-04T18:38:35.631Z,96654.81
2022-10-04T18:41:17.013Z,96665.06
2022-10-04T18:43:57.023Z,96651.13
2022-10-04T18:46:24.306Z,96650.47
2022-10-04T18:49:01.562Z,96645.44
2022-10-04T18:51:39.995Z,96648.47
2022-10-04T18:54:20.836Z,96670.31
2022-10-04T18:56:53.233Z,96675.50
2022-10-04T19:00:06.578Z,96672.84
2022-10-04T19:02:43.225Z,96682.94
2022-10-04T19:05:22.780Z,96682.66
2022-10-04T19:08:21.007Z,96691.59
2022-10-04T19:11:02.228Z,96690.22
2022-10-04T19:13:40.974Z,96685.63
2022-10-04T19:16:39.220Z,96676.75
2022-10-04T19:19:09.679Z,96673.81
2022-10-04T19:21:58.401Z,96678.28
2022-10-04T19:24:39.178Z,96691.59
2022-10-04T19:27:29.412Z,96698.91
2022-10-04T19:30:14.345Z,96689.44
2022-10-04T19:33:02.650Z,96684.53
2022-10-04T19:35:50.243Z,96689.13
2022-10-04T19:38:37.897Z,96688.47
2022-10-04T19:41:48.212Z,96691.94
2022-10-04T19:44:23.365Z,96692.06
2022-10-04T19:46:59.920Z,96691.88
2022-10-04T19:49:39.763Z,96692.19
2022-10-04T19:52:52.605Z,96688.88
2022-10-04T19:55:33.818Z,96681.03
2022-10-04T19:58:07.840Z,96670.25
2022-10-04T20:00:35.096Z,96669.59
2022-10-04T20:03:01.007Z,96672.22
2022-10-04T20:05:27.513Z,96668.03
2022-10-04T20:08:04.506Z,96663.78
2022-10-04T20:10:33.028Z,96664.25
2022-10-04T20:13:12.597Z,96668.06
2022-10-04T20:15:38.417Z,96656.91
2022-10-04T20:18:32.177Z,96666.56
2022-10-04T20:20:59.261Z,96665.53
2022-10-04T20:23:48.817Z,96669.34
2022-10-04T20:26:54.388Z,96666.25
2022-10-04T20:29:35.850Z,96664.13
2022-10-04T20:32:03.471Z,96667.81
2022-10-04T20:34:38.519Z,96668.19
2022-10-04T20:37:07.532Z,96667.38
2022-10-04T20:39:39.423Z,96669.22
2022-10-04T20:42:19.099Z,96668.09
2022-10-04T20:44:55.031Z,96660.63
2022-10-04T20:47:28.215Z,96656.59
2022-10-04T20:49:57.145Z,96664.88
2022-10-04T20:52:27.882Z,96668.22
2022-10-04T20:54:54.438Z,96660.16
2022-10-04T20:57:23.225Z,96662.56
2022-10-04T20:59:53.945Z,96664.53
2022-10-04T21:02:22.203Z,96654.16
2022-10-04T21:04:51.550Z,96655.34
2022-10-04T21:07:22.632Z,96654.53
2022-10-04T21:09:49.398Z,96649.84
2022-10-04T21:12:37.486Z,96660.41
2022-10-04T21:15:05.665Z,96660.06
2022-10-04T21:17:31.451Z,96655.00
2022-10-04T21:19:57.499Z,96670.63
2022-10-04T21:22:26.075Z,96657.75
2022-10-04T21:24:57.682Z,96667.78
2022-10-04T21:27:35.070Z,96657.41
2022-10-04T21:30:06.202Z,96650.75
2022-10-04T21:32:34.644Z,96661.22
2022-10-04T21:35:00.841Z,96659.84
2022-10-04T21:37:26.614Z,96657.41
2022-10-04T21:39:52.408Z,96647.75
2022-10-04T21:42:18.258Z,96656.03
2022-10-04T21:44:44.310Z,96644.91
2022-10-04T21:47:10.479Z,96648.25
2022-10-04T21:49:36.559Z,96644.31
2022-10-04T21:52:02.663Z,96649.28
2022-10-04T21:54:28.580Z,96647.56
2022-10-04T21:56:54.325Z,96643.88
2022-10-04T21:59:20.757Z,96635.25
2022-10-04T22:01:46.653Z,96634.03
2022-10-04T22:04:12.447Z,96634.72
2022-10-04T22:06:38.509Z,96638.03
2022-10-04T22:09:04.427Z,96637.34
2022-10-04T22:11:30.340Z,96646.63
2022-10-04T22:13:56.133Z,96645.59
2022-10-04T22:16:21.976Z,96644.91
2022-10-04T22:18:47.853Z,96653.06
2022-10-04T22:21:13.767Z,96649.88
2022-10-04T22:23:42.510Z,96642.41
2022-10-04T22:26:20.360Z,96644.69
2022-10-04T22:28:49.453Z,96643.06
2022-10-04T22:31:18.445Z,96639.41
2022-10-04T22:33:46.393Z,96648.13
2022-10-04T22:36:34.945Z,96647.91
2022-10-04T22:39:10.178Z,96648.22
2022-10-04T22:41:40.908Z,96649.16
2022-10-04T22:44:17.251Z,96650.25
2022-10-04T22:46:47.484Z,96658.38
2022-10-04T22:49:16.492Z,96649.34
2022-10-04T22:51:44.261Z,96636.38
2022-10-04T22:54:11.921Z,96635.34
2022-10-04T22:56:38.335Z,96619.03
2022-10-04T22:59:04.440Z,96616.78
2022-10-04T23:01:31.107Z,96617.88
2022-10-04T23:03:57.570Z,96608.84
2022-10-04T23:06:23.365Z,96609.28
2022-10-04T23:08:49.134Z,96611.25
2022-10-04T23:11:14.902Z,96596.66
2022-10-04T23:13:40.774Z,96608.94
2022-10-04T23:16:13.517Z,96600.59
2022-10-04T23:18:40.209Z,96603.22
2022-10-04T23:21:18.868Z,96611.81
2022-10-04T23:23:46.169Z,96603.09
2022-10-04T23:26:21.404Z,96611.13
2022-10-04T23:28:47.199Z,96612.72
2022-10-04T23:31:23.115Z,96627.19
2022-10-04T23:33:50.684Z,96624.69
2022-10-04T23:36:17.236Z,96627.75
2022-10-04T23:38:58.244Z,96619.19
2022-10-04T23:41:24.750Z,96625.69
2022-10-04T23:43:50.841Z,96620.88
2022-10-04T23:46:21.063Z,96616.78
2022-10-04T23:48:47.472Z,96614.56
2022-10-04T23:51:18.009Z,96614.34
2022-10-04T23:53:47.365Z,96613.28
2022-10-04T23:56:20.816Z,96612.84
2022-10-04T23:58:49.065Z,96598.06
